sensor_id;sensor_type;location;lat;lon;timestamp;pressure;altitude;pressure_sealevel;temperature;humidity
43818;BME280;29868;47.360;18.984;2023-03-03T00:26:00;100567.38;;;0.20;100.00
43818;BME280;29868;47.360;18.984;2023-03-03T00:28:39;100557.56;;;0.13;100.00
43818;BME280;29868;47.360;18.984;2023-03-03T00:31:15;100560.72;;;0.09;100.00
43818;BME280;29868;47.360;18.984;2023-03-03T00:33:53;100564.25;;;0.11;100.00
43818;BME280;29868;47.360;18.984;2023-03-03T00:36:40;100559.56;;;0.04;100.00
43818;BME280;29868;47.360;18.984;2023-03-03T00:39:32;100552.41;;;-0.02;100.00
43818;BME280;29868;47.360;18.984;2023-03-03T00:41:59;100551.91;;;0.04;100.00
43818;BME280;29868;47.360;18.984;2023-03-03T00:49:47;100556.44;;;-0.05;100.00
43818;BME280;29868;47.360;18.984;2023-03-03T00:52:15;100549.97;;;0.15;100.00
43818;BME280;29868;47.360;18.984;2023-03-03T00:54:41;100551.66;;;0.14;100.00
43818;BME280;29868;47.360;18.984;2023-03-03T00:57:07;100559.78;;;0.22;100.00
43818;BME280;29868;47.360;18.984;2023-03-03T00:59:32;100553.75;;;0.35;100.00
43818;BME280;29868;47.360;18.984;2023-03-03T01:01:57;100547.59;;;0.46;100.00
43818;BME280;29868;47.360;18.984;2023-03-03T01:04:23;100550.25;;;0.62;100.00
43818;BME280;29868;47.360;18.984;2023-03-03T01:06:48;100536.84;;;0.81;100.00
43818;BME280;29868;47.360;18.984;2023-03-03T01:09:14;100533.47;;;0.97;100.00
43818;BME280;29868;47.360;18.984;2023-03-03T01:11:39;100528.09;;;1.07;100.00
43818;BME280;29868;47.360;18.984;2023-03-03T01:14:05;100532.16;;;1.18;100.00
43818;BME280;29868;47.360;18.984;2023-03-03T01:16:30;100531.75;;;1.27;100.00
43818;BME280;29868;47.360;18.984;2023-03-03T01:18:57;100539.22;;;1.39;100.00
43818;BME280;29868;47.360;18.984;2023-03-03T01:21:22;100537.34;;;1.51;100.00
43818;BME280;29868;47.360;18.984;2023-03-03T01:23:47;100532.81;;;1.62;100.00
43818;BME280;29868;47.360;18.984;2023-03-03T01:26:13;100527.16;;;1.67;100.00
43818;BME280;29868;47.360;18.984;2023-03-03T01:28:38;100529.13;;;1.73;100.00
43818;BME280;29868;47.360;18.984;2023-03-03T01:31:04;100520.19;;;1.81;100.00
43818;BME280;29868;47.360;18.984;2023-03-03T01:33:31;100516.09;;;1.85;100.00
43818;BME280;29868;47.360;18.984;2023-03-03T01:35:57;100520.28;;;1.99;100.00
43818;BME280;29868;47.360;18.984;2023-03-03T01:38:23;100505.25;;;2.05;100.00
43818;BME280;29868;47.360;18.984;2023-03-03T01:40:53;100512.50;;;2.14;100.00
43818;BME280;29868;47.360;18.984;2023-03-03T01:43:18;100511.94;;;2.19;100.00
43818;BME280;29868;47.360;18.984;2023-03-03T01:48:25;100503.28;;;2.34;100.00
43818;BME280;29868;47.360;18.984;2023-03-03T01:51:32;100509.53;;;2.39;100.00
43818;BME280;29868;47.360;18.984;2023-03-03T01:53:52;100505.41;;;2.59;100.00
43818;BME280;29868;47.360;18.984;2023-03-03T01:56:19;100508.44;;;2.52;100.00
43818;BME280;29868;47.360;18.984;2023-03-03T01:58:49;100506.59;;;2.49;100.00
43818;BME280;29868;47.360;18.984;2023-03-03T02:01:22;100505.22;;;2.56;100.00
43818;BME280;29868;47.360;18.984;2023-03-03T02:03:49;100507.84;;;2.57;100.00
43818;BME280;29868;47.360;18.984;2023-03-03T02:06:19;100511.72;;;2.65;100.00
43818;BME280;29868;47.360;18.984;2023-03-03T02:09:05;100510.41;;;2.74;100.00
43818;BME280;29868;47.360;18.984;2023-03-03T02:11:35;100510.41;;;2.74;100.00
43818;BME280;29868;47.360;18.984;2023-03-03T02:14:01;100511.13;;;2.71;100.00
43818;BME280;29868;47.360;18.984;2023-03-03T02:16:27;100509.38;;;2.70;100.00
43818;BME280;29868;47.360;18.984;2023-03-03T02:18:53;100504.63;;;2.78;100.00
43818;BME280;29868;47.360;18.984;2023-03-03T02:21:20;100497.19;;;2.84;100.00
43818;BME280;29868;47.360;18.984;2023-03-03T02:26:47;100504.19;;;3.04;100.00
43818;BME280;29868;47.360;18.984;2023-03-03T02:29:12;100502.56;;;3.06;100.00
43818;BME280;29868;47.360;18.984;2023-03-03T02:31:38;100504.84;;;3.00;100.00
43818;BME280;29868;47.360;18.984;2023-03-03T02:34:04;100495.47;;;3.01;100.00
43818;BME280;29868;47.360;18.984;2023-03-03T02:36:33;100500.81;;;3.05;100.00
43818;BME280;29868;47.360;18.984;2023-03-03T02:39:15;100504.41;;;3.09;100.00
43818;BME280;29868;47.360;18.984;2023-03-03T02:41:54;100495.16;;;3.12;100.00
43818;BME280;29868;47.360;18.984;2023-03-03T02:44:25;100496.91;;;3.13;100.00
43818;BME280;29868;47.360;18.984;2023-03-03T02:46:53;100489.88;;;3.09;100.00
43818;BME280;29868;47.360;18.984;2023-03-03T02:49:22;100479.91;;;3.15;100.00
43818;BME280;29868;47.360;18.984;2023-03-03T02:51:48;100488.25;;;3.29;100.00
43818;BME280;29868;47.360;18.984;2023-03-03T02:54:15;100485.78;;;3.13;100.00
43818;BME280;29868;47.360;18.984;2023-03-03T02:56:42;100482.63;;;3.01;100.00
43818;BME280;29868;47.360;18.984;2023-03-03T02:59:08;100468.03;;;3.17;100.00
43818;BME280;29868;47.360;18.984;2023-03-03T03:01:34;100474.03;;;3.18;100.00
43818;BME280;29868;47.360;18.984;2023-03-03T03:04:08;100474.19;;;3.21;100.00
43818;BME280;29868;47.360;18.984;2023-03-03T03:06:34;100476.13;;;3.45;100.00
43818;BME280;29868;47.360;18.984;2023-03-03T03:08:59;100465.25;;;3.50;100.00
43818;BME280;29868;47.360;18.984;2023-03-03T03:11:25;100465.50;;;3.37;100.00
43818;BME280;29868;47.360;18.984;2023-03-03T03:13:50;100470.38;;;3.31;100.00
43818;BME280;29868;47.360;18.984;2023-03-03T03:16:17;100466.47;;;3.39;100.00
43818;BME280;29868;47.360;18.984;2023-03-03T03:18:42;100472.25;;;3.35;100.00
43818;BME280;29868;47.360;18.984;2023-03-03T03:21:09;100470.09;;;3.44;100.00
43818;BME280;29868;47.360;18.984;2023-03-03T03:23:35;100462.28;;;3.41;100.00
43818;BME280;29868;47.360;18.984;2023-03-03T03:26:01;100466.41;;;3.37;100.00
43818;BME280;29868;47.360;18.984;2023-03-03T03:28:26;100463.16;;;3.41;100.00
43818;BME280;29868;47.360;18.984;2023-03-03T03:30:52;100464.91;;;3.42;100.00
43818;BME280;29868;47.360;18.984;2023-03-03T03:33:17;100457.94;;;3.40;100.00
43818;BME280;29868;47.360;18.984;2023-03-03T03:35:43;100459.16;;;3.48;100.00
43818;BME280;29868;47.360;18.984;2023-03-03T03:38:12;100459.84;;;3.44;100.00
43818;BME280;29868;47.360;18.984;2023-03-03T03:40:38;100458.22;;;3.46;100.00
43818;BME280;29868;47.360;18.984;2023-03-03T03:43:03;100459.31;;;3.51;100.00
43818;BME280;29868;47.360;18.984;2023-03-03T03:45:29;100446.47;;;3.51;100.00
43818;BME280;29868;47.360;18.984;2023-03-03T03:47:54;100451.22;;;3.61;100.00
43818;BME280;29868;47.360;18.984;2023-03-03T03:50:20;100452.97;;;3.62;100.00
43818;BME280;29868;47.360;18.984;2023-03-03T03:52:46;100444.25;;;3.59;100.00
43818;BME280;29868;47.360;18.984;2023-03-03T03:55:11;100447.34;;;3.71;100.00
43818;BME280;29868;47.360;18.984;2023-03-03T03:57:37;100445.59;;;3.70;100.00
43818;BME280;29868;47.360;18.984;2023-03-03T04:00:04;100449.03;;;3.71;100.00
43818;BME280;29868;47.360;18.984;2023-03-03T04:02:30;100442.50;;;3.58;100.00
43818;BME280;29868;47.360;18.984;2023-03-03T04:04:55;100448.94;;;3.68;100.00
43818;BME280;29868;47.360;18.984;2023-03-03T04:07:21;100437.22;;;3.74;100.00
43818;BME280;29868;47.360;18.984;2023-03-03T04:09:46;100441.22;;;3.68;100.00
43818;BME280;29868;47.360;18.984;2023-03-03T04:12:11;100438.75;;;3.71;100.00
43818;BME280;29868;47.360;18.984;2023-03-03T04:14:37;100441.47;;;3.74;100.00
43818;BME280;29868;47.360;18.984;2023-03-03T04:17:02;100444.72;;;3.70;100.00
43818;BME280;29868;47.360;18.984;2023-03-03T04:19:28;100439.72;;;3.73;100.00
43818;BME280;29868;47.360;18.984;2023-03-03T04:21:53;100441.47;;;3.74;100.00
43818;BME280;29868;47.360;18.984;2023-03-03T04:24:19;100435.75;;;3.79;100.00
43818;BME280;29868;47.360;18.984;2023-03-03T04:26:44;100433.22;;;3.81;100.00
43818;BME280;29868;47.360;18.984;2023-03-03T04:29:10;100436.09;;;3.68;100.00
43818;BME280;29868;47.360;18.984;2023-03-03T04:31:35;100428.03;;;3.79;100.00
43818;BME280;29868;47.360;18.984;2023-03-03T04:34:01;100434.09;;;3.81;100.00
43818;BME280;29868;47.360;18.984;2023-03-03T04:36:26;100432.56;;;3.85;100.00
43818;BME280;29868;47.360;18.984;2023-03-03T04:38:52;100425.53;;;3.81;100.00
43818;BME280;29868;47.360;18.984;2023-03-03T04:41:17;100434.25;;;3.84;100.00
43818;BME280;29868;47.360;18.984;2023-03-03T04:43:43;100429.06;;;3.83;100.00
43818;BME280;29868;47.360;18.984;2023-03-03T04:46:08;100433.38;;;3.84;100.00
43818;BME280;29868;47.360;18.984;2023-03-03T04:48:33;100429.84;;;3.82;100.00
43818;BME280;29868;47.360;18.984;2023-03-03T04:50:59;100434.25;;;3.84;100.00
43818;BME280;29868;47.360;18.984;2023-03-03T04:53:24;100426.47;;;3.83;100.00
43818;BME280;29868;47.360;18.984;2023-03-03T04:55:53;100428.38;;;3.87;100.00
43818;BME280;29868;47.360;18.984;2023-03-03T04:58:19;100431.13;;;3.92;100.00
43818;BME280;29868;47.360;18.984;2023-03-03T05:00:53;100418.97;;;3.87;100.00
43818;BME280;29868;47.360;18.984;2023-03-03T05:03:19;100426.88;;;3.92;100.00
43818;BME280;29868;47.360;18.984;2023-03-03T05:05:46;100427.69;;;3.91;100.00
43818;BME280;29868;47.360;18.984;2023-03-03T05:08:12;100432.16;;;3.95;100.00
43818;BME280;29868;47.360;18.984;2023-03-03T05:10:37;100441.06;;;4.03;100.00
43818;BME280;29868;47.360;18.984;2023-03-03T05:13:04;100440.94;;;4.00;100.00
43818;BME280;29868;47.360;18.984;2023-03-03T05:15:29;100434.31;;;4.05;100.00
43818;BME280;29868;47.360;18.984;2023-03-03T05:17:55;100429.03;;;4.02;100.00
43818;BME280;29868;47.360;18.984;2023-03-03T05:20:21;100429.81;;;4.01;100.00
43818;BME280;29868;47.360;18.984;2023-03-03T05:22:46;100426.31;;;3.99;100.00
43818;BME280;29868;47.360;18.984;2023-03-03T05:25:12;100430.78;;;4.03;100.00
43818;BME280;29868;47.360;18.984;2023-03-03T05:27:38;100439.91;;;3.97;100.00
43818;BME280;29868;47.360;18.984;2023-03-03T05:30:03;100439.03;;;3.96;100.00
43818;BME280;29868;47.360;18.984;2023-03-03T05:32:29;100445.38;;;4.04;100.00
43818;BME280;29868;47.360;18.984;2023-03-03T05:34:54;100437.41;;;4.18;100.00
43818;BME280;29868;47.360;18.984;2023-03-03T05:37:20;100436.53;;;4.17;100.00
43818;BME280;29868;47.360;18.984;2023-03-03T05:39:45;100440.84;;;4.18;100.00
43818;BME280;29868;47.360;18.984;2023-03-03T05:42:11;100446.34;;;4.27;100.00
43818;BME280;29868;47.360;18.984;2023-03-03T05:44:37;100442.84;;;4.25;100.00
43818;BME280;29868;47.360;18.984;2023-03-03T05:47:03;100450.03;;;4.32;100.00
43818;BME280;29868;47.360;18.984;2023-03-03T05:49:28;100442.19;;;4.29;100.00
43818;BME280;29868;47.360;18.984;2023-03-03T05:51:54;100443.56;;;4.42;100.00
43818;BME280;29868;47.360;18.984;2023-03-03T05:54:19;100450.88;;;4.54;100.00
43818;BME280;29868;47.360;18.984;2023-03-03T05:56:44;100459.31;;;4.50;100.00
43818;BME280;29868;47.360;18.984;2023-03-03T05:59:10;100455.03;;;4.50;100.00
43818;BME280;29868;47.360;18.984;2023-03-03T06:01:35;100457.81;;;4.55;100.00
43818;BME280;29868;47.360;18.984;2023-03-03T06:04:01;100464.53;;;4.51;100.00
43818;BME280;29868;47.360;18.984;2023-03-03T06:06:26;100460.50;;;4.58;100.00
43818;BME280;29868;47.360;18.984;2023-03-03T06:08:52;100465.59;;;4.56;100.00
43818;BME280;29868;47.360;18.984;2023-03-03T06:11:18;100469.31;;;4.63;100.00
43818;BME280;29868;47.360;18.984;2023-03-03T06:13:43;100473.81;;;4.69;100.00
43818;BME280;29868;47.360;18.984;2023-03-03T06:16:09;100476.38;;;4.69;100.00
43818;BME280;29868;47.360;18.984;2023-03-03T06:18:34;100474.50;;;4.64;100.00
43818;BME280;29868;47.360;18.984;2023-03-03T06:21:00;100481.28;;;4.62;100.00
43818;BME280;29868;47.360;18.984;2023-03-03T06:23:26;100483.97;;;4.66;100.00
43818;BME280;29868;47.360;18.984;2023-03-03T06:25:51;100478.91;;;4.67;100.00
43818;BME280;29868;47.360;18.984;2023-03-03T06:28:17;100487.81;;;4.75;100.00
43818;BME280;29868;47.360;18.984;2023-03-03T06:30:43;100484.41;;;4.76;100.00
43818;BME280;29868;47.360;18.984;2023-03-03T06:33:09;100494.13;;;4.83;100.00
43818;BME280;29868;47.360;18.984;2023-03-03T06:35:34;100493.44;;;4.87;100.00
43818;BME280;29868;47.360;18.984;2023-03-03T06:38:00;100490.75;;;4.84;100.00
43818;BME280;29868;47.360;18.984;2023-03-03T06:40:26;100495.31;;;4.92;100.00
43818;BME280;29868;47.360;18.984;2023-03-03T06:42:51;100483.28;;;4.91;100.00
43818;BME280;29868;47.360;18.984;2023-03-03T06:45:16;100486.16;;;4.98;100.00
43818;BME280;29868;47.360;18.984;2023-03-03T06:47:42;100486.22;;;5.22;100.00
43818;BME280;29868;47.360;18.984;2023-03-03T06:50:10;100481.75;;;5.39;100.00
43818;BME280;29868;47.360;18.984;2023-03-03T06:52:36;100487.03;;;5.42;100.00
43818;BME280;29868;47.360;18.984;2023-03-03T06:55:10;100493.19;;;5.46;100.00
43818;BME280;29868;47.360;18.984;2023-03-03T06:57:36;100489.41;;;5.60;100.00
43818;BME280;29868;47.360;18.984;2023-03-03T07:00:19;100489.44;;;5.84;100.00
43818;BME280;29868;47.360;18.984;2023-03-03T07:02:55;100483.09;;;5.98;100.00
43818;BME280;29868;47.360;18.984;2023-03-03T07:05:23;100500.19;;;5.95;100.00
43818;BME280;29868;47.360;18.984;2023-03-03T07:07:49;100496.13;;;6.01;100.00
43818;BME280;29868;47.360;18.984;2023-03-03T07:10:24;100493.53;;;6.01;100.00
43818;BME280;29868;47.360;18.984;2023-03-03T07:12:51;100495.94;;;6.21;100.00
43818;BME280;29868;47.360;18.984;2023-03-03T07:15:22;100494.84;;;6.38;100.00
43818;BME280;29868;47.360;18.984;2023-03-03T07:17:52;100499.31;;;6.44;100.00
43818;BME280;29868;47.360;18.984;2023-03-03T07:20:24;100505.81;;;6.56;100.00
43818;BME280;29868;47.360;18.984;2023-03-03T07:22:52;100500.91;;;6.64;100.00
43818;BME280;29868;47.360;18.984;2023-03-03T07:25:25;100511.09;;;6.87;100.00
43818;BME280;29868;47.360;18.984;2023-03-03T07:27:58;100507.22;;;6.99;100.00
43818;BME280;29868;47.360;18.984;2023-03-03T07:30:26;100513.50;;;7.07;100.00
43818;BME280;29868;47.360;18.984;2023-03-03T07:32:54;100513.25;;;7.27;100.00
43818;BME280;29868;47.360;18.984;2023-03-03T07:35:28;100518.34;;;7.24;100.00
43818;BME280;29868;47.360;18.984;2023-03-03T07:37:59;100517.69;;;7.31;100.00
43818;BME280;29868;47.360;18.984;2023-03-03T07:40:38;100521.38;;;7.12;100.00
43818;BME280;29868;47.360;18.984;2023-03-03T07:46:02;100526.72;;;7.17;100.00
43818;BME280;29868;47.360;18.984;2023-03-03T07:48:41;100527.69;;;7.20;100.00
43818;BME280;29868;47.360;18.984;2023-03-03T07:53:44;100531.34;;;7.27;100.00
43818;BME280;29868;47.360;18.984;2023-03-03T07:56:29;100534.22;;;7.36;100.00
43818;BME280;29868;47.360;18.984;2023-03-03T07:58:55;100535.09;;;7.37;100.00
43818;BME280;29868;47.360;18.984;2023-03-03T08:01:41;100540.63;;;7.49;100.00
43818;BME280;29868;47.360;18.984;2023-03-03T08:06:58;100540.38;;;7.40;100.00
43818;BME280;29868;47.360;18.984;2023-03-03T08:14:34;100538.81;;;7.18;100.00
43818;BME280;29868;47.360;18.984;2023-03-03T08:17:00;100531.25;;;7.24;100.00
43818;BME280;29868;47.360;18.984;2023-03-03T08:19:27;100542.47;;;7.24;100.00
43818;BME280;29868;47.360;18.984;2023-03-03T08:22:09;100541.16;;;6.85;100.00
43818;BME280;29868;47.360;18.984;2023-03-03T08:24:36;100538.53;;;7.09;100.00
43818;BME280;29868;47.360;18.984;2023-03-03T08:27:01;100540.25;;;7.10;100.00
43818;BME280;29868;47.360;18.984;2023-03-03T08:29:27;100539.41;;;7.09;100.00
43818;BME280;29868;47.360;18.984;2023-03-03T08:31:52;100532.06;;;7.23;100.00
43818;BME280;29868;47.360;18.984;2023-03-03T08:34:17;100533.34;;;7.36;100.00
43818;BME280;29868;47.360;18.984;2023-03-03T08:36:43;100518.13;;;7.45;100.00
43818;BME280;29868;47.360;18.984;2023-03-03T08:39:08;100524.78;;;7.65;100.00
43818;BME280;29868;47.360;18.984;2023-03-03T08:41:34;100531.22;;;7.79;100.00
43818;BME280;29868;47.360;18.984;2023-03-03T08:43:59;100516.22;;;7.68;100.00
43818;BME280;29868;47.360;18.984;2023-03-03T08:46:25;100534.91;;;7.88;100.00
43818;BME280;29868;47.360;18.984;2023-03-03T08:48:51;100530.22;;;8.04;100.00
43818;BME280;29868;47.360;18.984;2023-03-03T08:51:16;100529.91;;;7.94;100.00
43818;BME280;29868;47.360;18.984;2023-03-03T08:53:42;100526.06;;;8.10;100.00
43818;BME280;29868;47.360;18.984;2023-03-03T08:56:07;100536.41;;;8.10;100.00
43818;BME280;29868;47.360;18.984;2023-03-03T08:58:34;100537.34;;;7.83;100.00
43818;BME280;29868;47.360;18.984;2023-03-03T09:01:00;100534.91;;;8.18;100.00
43818;BME280;29868;47.360;18.984;2023-03-03T09:03:25;100538.00;;;8.36;100.00
43818;BME280;29868;47.360;18.984;2023-03-03T09:05:51;100531.09;;;8.37;100.00
43818;BME280;29868;47.360;18.984;2023-03-03T09:08:16;100533.69;;;8.67;100.00
43818;BME280;29868;47.360;18.984;2023-03-03T09:10:42;100524.47;;;8.78;100.00
43818;BME280;29868;47.360;18.984;2023-03-03T09:13:13;100530.38;;;8.72;100.00
43818;BME280;29868;47.360;18.984;2023-03-03T09:15:39;100525.19;;;9.06;100.00
43818;BME280;29868;47.360;18.984;2023-03-03T09:18:30;100524.34;;;9.08;100.00
43818;BME280;29868;47.360;18.984;2023-03-03T09:20:56;100529.69;;;9.14;100.00
43818;BME280;29868;47.360;18.984;2023-03-03T09:23:37;100523.47;;;9.08;100.00
43818;BME280;29868;47.360;18.984;2023-03-03T09:26:29;100530.50;;;9.12;100.00
43818;BME280;29868;47.360;18.984;2023-03-03T09:31:42;100530.16;;;9.34;100.00
43818;BME280;29868;47.360;18.984;2023-03-03T09:34:17;100527.38;;;9.64;100.00
43818;BME280;29868;47.360;18.984;2023-03-03T09:36:44;100527.56;;;9.72;100.00
43818;BME280;29868;47.360;18.984;2023-03-03T09:42:19;100535.16;;;9.63;100.00
43818;BME280;29868;47.360;18.984;2023-03-03T09:45:11;100529.22;;;10.11;100.00
43818;BME280;29868;47.360;18.984;2023-03-03T09:53:16;100525.25;;;10.72;100.00
43818;BME280;29868;47.360;18.984;2023-03-03T09:58:31;100535.34;;;11.07;100.00
43818;BME280;29868;47.360;18.984;2023-03-03T10:06:38;100537.16;;;11.11;100.00
43818;BME280;29868;47.360;18.984;2023-03-03T10:24:34;100518.78;;;11.58;100.00
43818;BME280;29868;47.360;18.984;2023-03-03T10:27:19;100513.53;;;11.53;100.00
43818;BME280;29868;47.360;18.984;2023-03-03T10:29:56;100515.50;;;11.12;100.00
43818;BME280;29868;47.360;18.984;2023-03-03T10:32:39;100511.78;;;10.98;100.00
43818;BME280;29868;47.360;18.984;2023-03-03T10:51:35;100497.00;;;10.42;100.00
43818;BME280;29868;47.360;18.984;2023-03-03T11:03:16;100492.16;;;11.15;100.00
43818;BME280;29868;47.360;18.984;2023-03-03T11:08:35;100485.81;;;10.98;100.00
43818;BME280;29868;47.360;18.984;2023-03-03T11:14:15;100474.59;;;11.61;100.00
43818;BME280;29868;47.360;18.984;2023-03-03T11:30:35;100462.31;;;12.19;100.00
43818;BME280;29868;47.360;18.984;2023-03-03T11:36:48;100448.84;;;12.61;100.00
43818;BME280;29868;47.360;18.984;2023-03-03T11:39:21;100444.53;;;12.68;100.00
43818;BME280;29868;47.360;18.984;2023-03-03T11:44:28;100450.66;;;12.70;100.00
43818;BME280;29868;47.360;18.984;2023-03-03T11:49:35;100441.22;;;12.84;100.00
43818;BME280;29868;47.360;18.984;2023-03-03T11:52:27;100428.97;;;12.76;100.00
43818;BME280;29868;47.360;18.984;2023-03-03T11:55:14;100432.44;;;12.73;100.00
43818;BME280;29868;47.360;18.984;2023-03-03T11:57:50;100430.72;;;12.80;100.00
43818;BME280;29868;47.360;18.984;2023-03-03T12:25:04;100411.09;;;13.28;100.00
43818;BME280;29868;47.360;18.984;2023-03-03T12:44:17;100390.94;;;13.05;100.00
43818;BME280;29868;47.360;18.984;2023-03-03T12:49:06;100390.97;;;13.07;100.00
43818;BME280;29868;47.360;18.984;2023-03-03T12:52:07;100383.97;;;13.04;100.00
43818;BME280;29868;47.360;18.984;2023-03-03T12:54:53;100388.31;;;13.04;100.00
43818;BME280;29868;47.360;18.984;2023-03-03T13:03:21;100382.41;;;13.32;100.00
43818;BME280;29868;47.360;18.984;2023-03-03T13:06:18;100379.03;;;13.53;100.00
43818;BME280;29868;47.360;18.984;2023-03-03T13:09:31;100374.69;;;13.57;100.00
43818;BME280;29868;47.360;18.984;2023-03-03T13:12:08;100370.28;;;13.37;100.00
43818;BME280;29868;47.360;18.984;2023-03-03T13:20:03;100369.53;;;13.75;92.86
43818;BME280;29868;47.360;18.984;2023-03-03T13:22:49;100373.03;;;13.90;90.83
43818;BME280;29868;47.360;18.984;2023-03-03T13:25:56;100363.47;;;13.98;88.40
43818;BME280;29868;47.360;18.984;2023-03-03T13:28:34;100358.28;;;14.24;84.93
43818;BME280;29868;47.360;18.984;2023-03-03T13:31:36;100363.50;;;14.11;84.32
43818;BME280;29868;47.360;18.984;2023-03-03T13:34:04;100357.41;;;14.11;82.54
43818;BME280;29868;47.360;18.984;2023-03-03T13:36:38;100356.56;;;14.36;81.09
43818;BME280;29868;47.360;18.984;2023-03-03T13:39:17;100354.78;;;14.08;81.64
43818;BME280;29868;47.360;18.984;2023-03-03T13:42:09;100351.31;;;14.27;78.63
43818;BME280;29868;47.360;18.984;2023-03-03T13:44:45;100345.22;;;14.34;78.06
43818;BME280;29868;47.360;18.984;2023-03-03T13:50:18;100348.72;;;14.23;77.37
43818;BME280;29868;47.360;18.984;2023-03-03T14:06:23;100331.31;;;14.22;76.68
43818;BME280;29868;47.360;18.984;2023-03-03T14:11:55;100331.25;;;13.82;76.24
43818;BME280;29868;47.360;18.984;2023-03-03T14:18:03;100326.81;;;13.43;78.67
43818;BME280;29868;47.360;18.984;2023-03-03T14:20:23;100323.38;;;13.60;78.15
43818;BME280;29868;47.360;18.984;2023-03-03T14:22:58;100322.44;;;13.45;79.13
43818;BME280;29868;47.360;18.984;2023-03-03T14:25:24;100311.94;;;13.23;79.46
43818;BME280;29868;47.360;18.984;2023-03-03T14:28:01;100313.69;;;13.24;77.99
43818;BME280;29868;47.360;18.984;2023-03-03T14:35:41;100312.66;;;12.98;77.35
43818;BME280;29868;47.360;18.984;2023-03-03T14:40:34;100309.16;;;12.93;77.05
43818;BME280;29868;47.360;18.984;2023-03-03T14:43:04;100310.91;;;12.94;77.34
43818;BME280;29868;47.360;18.984;2023-03-03T14:45:43;100303.03;;;12.83;76.68
43818;BME280;29868;47.360;18.984;2023-03-03T14:48:20;100304.75;;;12.84;76.33
43818;BME280;29868;47.360;18.984;2023-03-03T14:51:14;100300.41;;;12.78;76.28
43818;BME280;29868;47.360;18.984;2023-03-03T14:53:47;100295.16;;;12.75;78.88
43818;BME280;29868;47.360;18.984;2023-03-03T14:56:24;100295.97;;;12.68;78.75
43818;BME280;29868;47.360;18.984;2023-03-03T14:58:52;100289.09;;;12.73;78.33
43818;BME280;29868;47.360;18.984;2023-03-03T15:01:32;100299.47;;;12.65;78.12
43818;BME280;29868;47.360;18.984;2023-03-03T15:06:47;100295.81;;;12.42;79.92
43818;BME280;29868;47.360;18.984;2023-03-03T15:09:40;100304.44;;;12.32;79.80
43818;BME280;29868;47.360;18.984;2023-03-03T15:17:38;100298.19;;;12.10;80.41
43818;BME280;29868;47.360;18.984;2023-03-03T15:27:39;100293.72;;;11.93;82.20
43818;BME280;29868;47.360;18.984;2023-03-03T15:33:12;100297.84;;;11.76;83.67
43818;BME280;29868;47.360;18.984;2023-03-03T15:35:48;100305.56;;;11.68;83.77
43818;BME280;29868;47.360;18.984;2023-03-03T15:43:45;100309.63;;;11.40;83.12
43818;BME280;29868;47.360;18.984;2023-03-03T15:54:40;100319.03;;;11.32;82.42
43818;BME280;29868;47.360;18.984;2023-03-03T16:02:51;100330.81;;;11.06;73.88
43818;BME280;29868;47.360;18.984;2023-03-03T16:11:14;100336.47;;;10.74;73.00
43818;BME280;29868;47.360;18.984;2023-03-03T16:22:11;100343.31;;;10.16;73.13
43818;BME280;29868;47.360;18.984;2023-03-03T16:30:02;100351.97;;;9.69;75.13
43818;BME280;29868;47.360;18.984;2023-03-03T16:32:39;100356.75;;;9.48;76.84
43818;BME280;29868;47.360;18.984;2023-03-03T16:35:23;100360.78;;;9.32;77.51
43818;BME280;29868;47.360;18.984;2023-03-03T16:40:46;100363.22;;;9.26;77.49
43818;BME280;29868;47.360;18.984;2023-03-03T16:45:39;100360.94;;;9.00;78.63
43818;BME280;29868;47.360;18.984;2023-03-03T16:51:03;100372.22;;;8.65;80.89
43818;BME280;29868;47.360;18.984;2023-03-03T16:53:56;100369.88;;;8.39;82.73
43818;BME280;29868;47.360;18.984;2023-03-03T17:07:29;100387.91;;;7.11;100.00
43818;BME280;29868;47.360;18.984;2023-03-03T17:13:09;100386.47;;;6.92;100.00
43818;BME280;29868;47.360;18.984;2023-03-03T17:21:50;100389.75;;;7.15;96.85
43818;BME280;29868;47.360;18.984;2023-03-03T17:42:59;100389.84;;;5.62;100.00
43818;BME280;29868;47.360;18.984;2023-03-03T17:45:29;100380.97;;;5.54;100.00
43818;BME280;29868;47.360;18.984;2023-03-03T17:48:29;100389.84;;;5.38;100.00
43818;BME280;29868;47.360;18.984;2023-03-03T17:56:07;100397.22;;;5.06;100.00
43818;BME280;29868;47.360;18.984;2023-03-03T18:02:01;100399.47;;;4.76;100.00
43818;BME280;29868;47.360;18.984;2023-03-03T18:21:03;100400.53;;;3.98;100.00
43818;BME280;29868;47.360;18.984;2023-03-03T18:23:40;100393.28;;;3.87;100.00
43818;BME280;29868;47.360;18.984;2023-03-03T18:26:33;100398.13;;;3.81;100.00
43818;BME280;29868;47.360;18.984;2023-03-03T18:29:27;100401.00;;;3.68;100.00
43818;BME280;29868;47.360;18.984;2023-03-03T18:34:39;100405.66;;;3.57;100.00
43818;BME280;29868;47.360;18.984;2023-03-03T18:40:33;100408.72;;;3.49;100.00
43818;BME280;29868;47.360;18.984;2023-03-03T18:46:03;100400.84;;;3.26;100.00
43818;BME280;29868;47.360;18.984;2023-03-03T18:54:06;100407.34;;;3.00;100.00
43818;BME280;29868;47.360;18.984;2023-03-03T19:04:50;100413.97;;;2.77;100.00
43818;BME280;29868;47.360;18.984;2023-03-03T19:12:56;100418.78;;;2.53;100.00
43818;BME280;29868;47.360;18.984;2023-03-03T19:18:32;100426.97;;;2.46;100.00
43818;BME280;29868;47.360;18.984;2023-03-03T19:21:05;100419.38;;;2.48;100.00
43818;BME280;29868;47.360;18.984;2023-03-03T19:39:50;100431.53;;;3.05;100.00